Time;durP1;ratioP1;P1;durP2;ratioP2;P2;SDS_P1;SDS_P2;PMS_P1;PMS_P2;Temp;Humidity;BMP_temperature;BMP_pressure;BME280_temperature;BME280_humidity;BME280_pressure;Samples;Min_cycle;Max_cycle;Signal;HPM_P1;HPM_P2
2023/08/02 00:01:10;;;;;;;1.33;0.90;;;18.80;99.90;;;19.28;nan;99582.66;4986082;28;20644;-68
2023/08/02 00:03:37;;;;;;;0.97;0.97;;;18.90;99.90;;;19.32;nan;99583.91;4986729;28;21217;-65
2023/08/02 00:06:04;;;;;;;0.80;0.80;;;18.90;99.90;;;19.31;nan;99579.66;4985801;28;21017;-65
2023/08/02 00:08:32;;;;;;;6.33;0.90;;;18.90;99.90;;;19.32;nan;99575.97;4988334;28;20966;-66
2023/08/02 00:10:59;;;;;;;2.20;0.73;;;18.90;99.90;;;19.28;nan;99580.03;4989551;28;20697;-66
2023/08/02 00:13:26;;;;;;;0.63;0.63;;;18.80;99.90;;;19.29;nan;99582.47;4989843;28;20648;-66
2023/08/02 00:15:53;;;;;;;1.17;1.17;;;18.90;99.90;;;19.29;nan;99586.97;4988468;28;20637;-65
2023/08/02 00:18:20;;;;;;;1.90;1.00;;;18.80;99.90;;;19.23;nan;99577.13;4986523;28;20665;-66
2023/08/02 00:20:48;;;;;;;1.30;0.87;;;18.80;99.90;;;19.23;nan;99577.13;4990232;28;20634;-66
2023/08/02 00:23:15;;;;;;;1.33;0.93;;;18.80;99.90;;;19.21;nan;99574.69;4990184;28;20639;-65
2023/08/02 00:25:42;;;;;;;5.03;1.40;;;18.80;99.90;;;19.20;nan;99564.31;4995715;28;21008;-65
2023/08/02 00:28:09;;;;;;;1.73;1.10;;;18.80;99.90;;;19.24;nan;99554.97;4993991;28;20665;-66
2023/08/02 00:30:44;;;;;;;1.00;1.00;;;18.80;99.90;;;19.21;nan;99547.41;4991068;28;20634;-68
2023/08/02 00:33:12;;;;;;;1.13;1.13;;;18.80;99.90;;;19.19;nan;99544.97;4988895;28;20707;-65
2023/08/02 00:35:44;;;;;;;1.00;1.00;;;18.80;99.90;;;19.21;nan;99552.69;4991243;28;20638;-65
2023/08/02 00:38:12;;;;;;;0.80;0.80;;;18.80;99.90;;;19.17;nan;99541.69;4990898;28;20669;-66
2023/08/02 00:40:39;;;;;;;1.00;0.80;;;18.80;99.90;;;19.19;nan;99544.13;4990951;28;20642;-66
2023/08/02 00:43:06;;;;;;;0.67;0.67;;;18.80;99.90;;;19.15;nan;99549.00;4994032;28;20646;-67
2023/08/02 00:45:33;;;;;;;2.80;1.00;;;18.70;99.90;;;19.12;nan;99559.94;4983591;28;20646;-65
2023/08/02 00:48:00;;;;;;;1.07;0.97;;;18.70;99.90;;;19.12;nan;99552.03;4981628;28;20669;-67
2023/08/02 00:50:31;;;;;;;0.93;0.93;;;18.70;99.90;;;19.11;nan;99552.22;4987614;28;20652;-67
2023/08/02 00:52:58;;;;;;;0.97;0.97;;;18.70;99.90;;;19.01;nan;99549.91;4995645;28;21048;-66
2023/08/02 00:55:25;;;;;;;1.10;1.10;;;18.60;99.90;;;18.95;nan;99545.38;4992495;28;21206;-67
2023/08/02 00:57:52;;;;;;;3.33;1.43;;;18.50;99.90;;;18.89;nan;99547.97;4991192;28;20665;-69
2023/08/02 01:00:19;;;;;;;1.57;1.47;;;18.50;99.90;;;18.87;nan;99542.06;4993417;28;20641;-68
2023/08/02 01:02:46;;;;;;;1.10;1.10;;;18.40;99.90;;;18.86;nan;99535.13;4992619;28;20642;-66
2023/08/02 01:05:13;;;;;;;1.07;1.07;;;18.40;99.90;;;18.79;nan;99539.53;4990572;28;20638;-67
2023/08/02 01:07:47;;;;;;;2.20;1.10;;;18.40;99.90;;;18.79;nan;99536.88;4993627;28;20670;-66
2023/08/02 01:10:35;;;;;;;1.00;1.00;;;18.40;99.90;;;18.75;nan;99531.16;4991056;28;20975;-66
2023/08/02 01:13:06;;;;;;;1.07;0.97;;;18.30;99.90;;;18.78;nan;99529.97;4991825;28;21049;-67
2023/08/02 01:15:34;;;;;;;0.80;0.80;;;18.40;99.90;;;18.74;nan;99523.44;4980199;28;20642;-67
2023/08/02 01:18:02;;;;;;;1.00;1.00;;;18.30;99.90;;;18.69;nan;99520.53;4993018;28;20649;-66
2023/08/02 01:20:29;;;;;;;1.90;1.17;;;18.30;99.90;;;18.63;nan;99522.13;4986088;28;20638;-66
2023/08/02 01:22:56;;;;;;;0.97;0.93;;;18.20;99.90;;;18.57;nan;99526.31;4984695;28;20639;-67
2023/08/02 01:25:26;;;;;;;1.10;1.10;;;18.20;99.90;;;18.51;nan;99529.69;4988727;28;20677;-67
2023/08/02 01:28:04;;;;;;;3.80;1.20;;;18.10;99.90;;;18.49;nan;99526.44;5000139;28;20666;-68
2023/08/02 01:30:36;;;;;;;2.27;2.00;;;18.10;99.90;;;18.45;nan;99514.59;4997367;28;20641;-66
2023/08/02 01:33:04;;;;;;;5.80;1.20;;;18.00;99.90;;;18.43;nan;99518.41;4991937;28;21062;-67
2023/08/02 01:35:33;;;;;;;2.57;1.10;;;18.00;99.90;;;18.38;nan;99513.69;4983919;28;20668;-67
2023/08/02 01:38:01;;;;;;;0.67;0.67;;;18.00;99.90;;;18.39;nan;99517.16;4989820;28;20658;-66
2023/08/02 01:40:28;;;;;;;1.27;1.17;;;18.00;99.90;;;18.32;nan;99525.00;4986763;28;20634;-67
2023/08/02 01:42:55;;;;;;;1.03;1.03;;;18.00;99.90;;;18.30;nan;99523.53;4993441;28;20630;-67
2023/08/02 01:45:22;;;;;;;0.90;0.90;;;17.90;99.90;;;18.29;nan;99514.00;4989501;28;20643;-66
2023/08/02 01:47:51;;;;;;;1.27;1.17;;;17.90;99.90;;;18.22;nan;99502.53;5002662;28;20689;-68
2023/08/02 01:50:18;;;;;;;2.60;1.00;;;17.80;99.90;;;18.21;nan;99504.34;4995619;28;20653;-67
2023/08/02 01:52:48;;;;;;;0.80;0.80;;;17.80;99.90;;;18.17;nan;99504.91;4997611;28;20697;-66
2023/08/02 01:55:19;;;;;;;0.90;0.80;;;17.80;99.90;;;18.08;nan;99500.75;4994639;28;20718;-66
2023/08/02 01:57:46;;;;;;;0.93;0.93;;;17.60;99.90;;;18.05;nan;99495.84;4996720;28;20658;-66
2023/08/02 02:00:13;;;;;;;0.90;0.90;;;17.70;99.90;;;17.99;nan;99492.13;4996723;28;20638;-67
2023/08/02 02:02:40;;;;;;;1.27;1.00;;;17.60;99.90;;;17.94;nan;99467.28;4998043;28;20642;-66
2023/08/02 02:05:07;;;;;;;1.43;1.00;;;17.50;99.90;;;17.88;nan;99463.56;4994931;28;21221;-66
2023/08/02 02:07:34;;;;;;;1.37;1.10;;;17.50;99.90;;;17.84;nan;99457.03;4989484;28;20674;-66
2023/08/02 02:10:01;;;;;;;1.03;1.00;;;17.40;99.90;;;17.79;nan;99443.56;4994920;28;20646;-66
2023/08/02 02:12:28;;;;;;;0.90;0.90;;;17.40;99.90;;;17.76;nan;99449.19;4999925;28;20681;-67
2023/08/02 02:14:55;;;;;;;0.80;0.70;;;17.40;99.90;;;17.73;nan;99452.22;4988937;28;20638;-65
2023/08/02 02:17:24;;;;;;;1.57;0.77;;;17.30;99.90;;;17.71;nan;99449.78;4993161;28;20705;-67
2023/08/02 02:19:51;;;;;;;1.10;1.10;;;17.30;99.90;;;17.74;nan;99454.66;4992093;28;20642;-65
2023/08/02 02:22:17;;;;;;;0.97;0.93;;;17.30;99.90;;;17.73;nan;99449.59;4989670;28;21227;-66
2023/08/02 02:24:45;;;;;;;1.80;0.80;;;17.30;99.90;;;17.74;nan;99452.03;4991492;28;20646;-66
2023/08/02 02:27:12;;;;;;;0.90;0.77;;;17.30;99.90;;;17.77;nan;99442.94;4990099;28;21275;-66
2023/08/02 02:29:39;;;;;;;1.70;0.80;;;17.40;99.90;;;17.72;nan;99440.03;4994025;28;21016;-66
2023/08/02 02:32:06;;;;;;;1.20;1.07;;;17.30;99.90;;;17.73;nan;99441.66;4995790;28;20662;-66
2023/08/02 02:34:33;;;;;;;0.70;0.70;;;17.30;99.90;;;17.74;nan;99432.72;4987592;28;20665;-65
2023/08/02 02:37:00;;;;;;;0.70;0.70;;;17.30;99.90;;;17.70;nan;99420.91;4987728;28;21064;-68
2023/08/02 02:39:27;;;;;;;1.37;1.10;;;17.30;99.90;;;17.68;nan;99409.75;5003349;28;20634;-66
2023/08/02 02:41:54;;;;;;;0.90;0.90;;;17.30;99.90;;;17.69;nan;99404.31;4991394;28;20638;-66
2023/08/02 02:44:21;;;;;;;0.83;0.83;;;17.30;99.90;;;17.68;nan;99401.81;4988790;28;21473;-66
2023/08/02 02:46:48;;;;;;;0.60;0.60;;;17.30;99.90;;;17.68;nan;99400.00;4989312;28;20685;-66
2023/08/02 02:49:15;;;;;;;0.63;0.63;;;17.30;99.90;;;17.66;nan;99404.66;4986483;28;20665;-66
2023/08/02 02:51:42;;;;;;;1.00;1.00;;;17.30;99.90;;;17.66;nan;99409.94;4986100;28;21608;-66
2023/08/02 02:54:09;;;;;;;1.20;1.10;;;17.20;99.90;;;17.66;nan;99407.28;4995588;28;20634;-67
2023/08/02 02:56:36;;;;;;;0.83;0.83;;;17.30;99.90;;;17.70;nan;99407.72;4988988;28;20661;-66
2023/08/02 02:59:03;;;;;;;0.93;0.93;;;17.30;99.90;;;17.71;nan;99399.66;4990801;28;20645;-67
2023/08/02 03:01:30;;;;;;;0.93;0.93;;;17.30;99.90;;;17.74;nan;99395.81;4988960;28;21023;-67
2023/08/02 03:03:57;;;;;;;1.07;0.83;;;17.30;99.90;;;17.72;nan;99392.53;4981971;28;20638;-67
2023/08/02 03:06:24;;;;;;;5.17;1.00;;;17.30;99.90;;;17.74;nan;99385.25;4988223;28;20669;-67
2023/08/02 03:08:51;;;;;;;1.53;0.93;;;17.30;99.90;;;17.77;nan;99388.34;4990442;28;20630;-67
2023/08/02 03:11:18;;;;;;;0.70;0.70;;;17.30;99.90;;;17.81;nan;99372.97;4990193;28;20623;-66
2023/08/02 03:13:45;;;;;;;2.03;0.90;;;17.40;99.90;;;17.82;nan;99364.84;4990416;28;21259;-68
2023/08/02 03:16:12;;;;;;;0.80;0.80;;;17.40;99.90;;;17.83;nan;99360.41;4981942;28;20630;-67
2023/08/02 03:18:39;;;;;;;0.83;0.57;;;17.40;99.90;;;17.85;nan;99363.66;4989980;28;20629;-67
2023/08/02 03:21:06;;;;;;;1.00;1.00;;;17.50;99.90;;;17.87;nan;99347.66;4983558;28;21197;-66
2023/08/02 03:23:34;;;;;;;0.67;0.67;;;17.50;99.90;;;17.91;nan;99341.00;4985211;28;20674;-67
2023/08/02 03:26:01;;;;;;;1.87;1.00;;;17.50;99.90;;;17.92;nan;99340.81;4989220;28;20627;-65
2023/08/02 03:28:28;;;;;;;1.60;0.77;;;17.50;99.90;;;17.86;nan;99338.94;4988520;28;20634;-65
2023/08/02 03:30:55;;;;;;;1.37;1.27;;;17.50;99.90;;;17.86;nan;99338.09;5001534;28;20711;-67
2023/08/02 03:33:22;;;;;;;2.30;1.00;;;17.50;99.90;;;17.87;nan;99332.63;4988310;28;20669;-67
2023/08/02 03:35:49;;;;;;;1.20;1.10;;;17.40;99.90;;;17.84;nan;99325.91;4985861;28;20641;-67
2023/08/02 03:38:16;;;;;;;2.00;0.90;;;17.50;99.90;;;17.86;nan;99317.81;4982997;28;20665;-65
2023/08/02 03:40:43;;;;;;;1.00;0.83;;;17.40;99.90;;;17.90;nan;99328.81;4988304;28;20644;-67
2023/08/02 03:43:10;;;;;;;0.80;0.80;;;17.50;99.90;;;17.87;nan;99323.91;4989216;28;21200;-66
2023/08/02 03:45:37;;;;;;;3.23;0.90;;;17.50;99.90;;;17.88;nan;99331.63;4992395;28;20652;-67
2023/08/02 03:48:05;;;;;;;0.80;0.80;;;17.40;99.90;;;17.90;nan;99340.19;4983856;28;20663;-66
2023/08/02 03:50:34;;;;;;;1.53;1.10;;;17.50;99.90;;;17.93;nan;99342.44;4990400;28;20637;-66
2023/08/02 03:53:01;;;;;;;1.50;1.20;;;17.50;99.90;;;17.98;nan;99328.69;4992446;28;20763;-67
2023/08/02 03:55:28;;;;;;;0.70;0.70;;;17.60;99.90;;;17.99;nan;99323.22;4989629;28;23015;-65
2023/08/02 03:57:55;;;;;;;0.87;0.87;;;17.60;99.90;;;17.96;nan;99314.84;4993155;28;21465;-66
2023/08/02 04:00:22;;;;;;;1.03;1.00;;;17.60;99.90;;;17.94;nan;99301.84;4988182;28;20648;-66
2023/08/02 04:02:49;;;;;;;0.90;0.90;;;17.50;99.90;;;17.93;nan;99297.56;4988512;28;20642;-66
2023/08/02 04:05:16;;;;;;;0.60;0.60;;;17.50;99.90;;;17.93;nan;99292.28;4991389;28;20641;-69
2023/08/02 04:07:43;;;;;;;1.07;1.03;;;17.50;99.90;;;17.95;nan;99286.84;4990208;28;20673;-66
2023/08/02 04:10:10;;;;;;;1.00;0.90;;;17.50;99.90;;;17.97;nan;99277.75;4989665;28;20648;-67
2023/08/02 04:12:37;;;;;;;1.10;1.00;;;17.60;99.90;;;17.94;nan;99283.38;4987230;28;20708;-66
2023/08/02 04:15:05;;;;;;;0.93;0.80;;;17.50;99.90;;;17.95;nan;99274.47;4982374;28;20642;-67
2023/08/02 04:17:32;;;;;;;1.63;0.80;;;17.50;99.90;;;17.97;nan;99266.38;4971970;28;20666;-66
2023/08/02 04:20:00;;;;;;;2.10;1.00;;;17.60;99.90;;;17.98;nan;99268.81;4980867;28;20639;-66
2023/08/02 04:22:31;;;;;;;1.13;1.03;;;17.60;99.90;;;18.03;nan;99257.69;4988945;28;20643;-66
2023/08/02 04:24:58;;;;;;;4.00;0.97;;;17.60;99.90;;;18.02;nan;99251.56;4985182;28;20643;-68
2023/08/02 04:27:25;;;;;;;4.00;0.90;;;17.70;99.90;;;18.00;nan;99256.22;4995077;28;20677;-66
2023/08/02 04:29:52;;;;;;;3.87;1.10;;;17.60;99.90;;;17.95;nan;99261.28;4986859;28;20649;-67
2023/08/02 04:32:19;;;;;;;1.57;1.13;;;17.50;99.90;;;17.97;nan;99261.91;4983763;28;20665;-68
2023/08/02 04:34:46;;;;;;;1.10;1.10;;;17.60;99.90;;;18.02;nan;99266.59;4989127;28;21229;-68
2023/08/02 04:37:13;;;;;;;0.90;0.87;;;17.60;99.90;;;18.02;nan;99264.78;4988406;28;20658;-67
2023/08/02 04:39:40;;;;;;;0.80;0.80;;;17.60;99.90;;;18.00;nan;99266.78;4993700;28;20649;-66
2023/08/02 04:42:07;;;;;;;1.00;0.90;;;17.60;99.90;;;17.98;nan;99263.53;4991538;28;20657;-66
2023/08/02 04:44:33;;;;;;;1.00;1.00;;;17.60;99.90;;;17.97;nan;99272.47;4998893;28;21022;-66
2023/08/02 04:47:00;;;;;;;0.80;0.70;;;17.60;99.90;;;17.94;nan;99272.84;4987213;28;20740;-66
2023/08/02 04:49:27;;;;;;;1.23;0.97;;;17.50;99.90;;;17.88;nan;99264.84;4989273;28;20653;-66
2023/08/02 04:51:54;;;;;;;0.50;0.50;;;17.50;99.90;;;17.87;nan;99284.34;4994718;28;20657;-66
2023/08/02 04:54:21;;;;;;;1.00;0.90;;;17.50;99.90;;;17.84;nan;99269.69;4997106;28;21242;-66
2023/08/02 04:56:48;;;;;;;2.90;1.30;;;17.50;99.90;;;17.86;nan;99269.50;4993061;28;20657;-67
2023/08/02 04:59:15;;;;;;;2.40;1.00;;;17.50;99.90;;;17.87;nan;99269.31;4990830;28;20634;-66
2023/08/02 05:01:42;;;;;;;1.10;1.10;;;17.50;99.90;;;17.90;nan;99261.03;4988744;28;20645;-67
2023/08/02 05:04:09;;;;;;;1.00;0.90;;;17.50;99.90;;;17.86;nan;99262.41;4991412;28;20630;-65
2023/08/02 05:06:36;;;;;;;1.00;0.97;;;17.50;99.90;;;17.83;nan;99268.06;4991613;28;20666;-66
2023/08/02 05:09:04;;;;;;;1.17;1.07;;;17.40;99.90;;;17.79;nan;99265.00;4993441;28;20630;-66
2023/08/02 05:11:32;;;;;;;1.00;1.00;;;17.40;99.90;;;17.76;nan;99259.25;4991092;28;20653;-67
2023/08/02 05:13:59;;;;;;;0.70;0.70;;;17.40;99.90;;;17.75;nan;99262.91;4993012;28;21038;-67
2023/08/02 05:16:26;;;;;;;1.27;1.17;;;17.40;99.90;;;17.68;nan;99256.75;4989746;28;20670;-66
2023/08/02 05:18:53;;;;;;;1.10;1.00;;;17.30;99.90;;;17.61;nan;99254.03;4992190;28;21029;-66
2023/08/02 05:21:20;;;;;;;1.00;1.00;;;17.20;99.90;;;17.56;nan;99259.09;4987868;28;21521;-66
2023/08/02 05:23:47;;;;;;;3.13;1.60;;;17.20;99.90;;;17.52;nan;99246.47;4991674;28;20626;-67
2023/08/02 05:26:14;;;;;;;1.07;1.07;;;17.10;99.90;;;17.50;nan;99243.19;4991430;28;20638;-67
2023/08/02 05:28:41;;;;;;;1.03;0.97;;;17.10;99.90;;;17.43;nan;99243.09;4992878;28;20634;-67
2023/08/02 05:31:12;;;;;;;0.90;0.70;;;17.10;99.90;;;17.33;nan;99236.50;4990637;28;20650;-66
2023/08/02 05:33:40;;;;;;;0.97;0.97;;;17.00;99.90;;;17.26;nan;99236.44;4995945;28;20673;-66
2023/08/02 05:36:11;;;;;;;2.07;1.20;;;16.90;99.90;;;17.25;nan;99240.06;4984967;28;20642;-67
2023/08/02 05:38:38;;;;;;;2.00;1.57;;;16.90;99.90;;;17.21;nan;99240.59;4995622;28;20723;-66
2023/08/02 05:41:05;;;;;;;2.90;1.27;;;16.80;99.90;;;17.19;nan;99237.34;4994943;28;21211;-66
2023/08/02 05:43:32;;;;;;;0.87;0.87;;;16.80;99.90;;;17.16;nan;99237.72;4991624;28;20630;-68
2023/08/02 05:45:59;;;;;;;1.10;1.10;;;16.80;99.90;;;17.12;nan;99242.56;4992096;28;20736;-66
2023/08/02 05:48:29;;;;;;;1.00;1.00;;;16.80;99.90;;;17.14;nan;99226.56;4987473;28;20677;-66
2023/08/02 05:50:56;;;;;;;0.87;0.87;;;16.80;99.90;;;17.15;nan;99223.72;4989758;28;20649;-66
2023/08/02 05:53:23;;;;;;;1.40;0.90;;;16.80;99.90;;;17.11;nan;99232.19;4995596;28;20709;-66
2023/08/02 05:55:50;;;;;;;9.80;1.20;;;16.80;99.90;;;17.07;nan;99234.38;4990991;28;21217;-66
2023/08/02 05:58:17;;;;;;;1.50;1.17;;;16.80;99.90;;;17.08;nan;99227.31;4998093;28;21469;-66
2023/08/02 06:00:44;;;;;;;2.77;1.10;;;16.70;99.90;;;17.05;nan;99224.03;4994395;28;21218;-66
2023/08/02 06:03:11;;;;;;;1.33;1.20;;;16.70;99.90;;;17.02;nan;99207.75;4990131;28;20638;-66
2023/08/02 06:05:38;;;;;;;0.70;0.70;;;16.70;99.90;;;17.01;nan;99206.16;4991347;28;20712;-67
2023/08/02 06:08:05;;;;;;;1.80;1.10;;;16.70;99.90;;;16.98;nan;99201.22;4996091;28;20677;-66
2023/08/02 06:10:32;;;;;;;0.93;0.93;;;16.70;99.90;;;17.01;nan;99193.75;4991936;28;20642;-66
2023/08/02 06:12:59;;;;;;;1.53;1.43;;;16.70;99.90;;;17.01;nan;99182.44;4991729;28;20670;-66
2023/08/02 06:15:25;;;;;;;1.37;1.10;;;16.70;99.90;;;17.02;nan;99171.69;4987060;28;20646;-67
2023/08/02 06:17:52;;;;;;;1.20;1.10;;;16.70;99.90;;;17.10;nan;99167.31;4990515;28;20671;-66
2023/08/02 06:20:19;;;;;;;1.10;1.10;;;16.80;99.90;;;17.14;nan;99168.56;4990217;28;21273;-67
2023/08/02 06:22:46;;;;;;;0.80;0.70;;;16.80;99.90;;;17.10;nan;99147.03;4994985;28;20641;-66
2023/08/02 06:25:13;;;;;;;1.17;1.10;;;16.80;99.90;;;17.12;nan;99150.31;4993253;28;21259;-66
2023/08/02 06:27:40;;;;;;;0.70;0.50;;;16.80;99.90;;;17.14;nan;99143.03;4995664;28;20666;-67
2023/08/02 06:30:08;;;;;;;1.30;1.20;;;16.80;99.90;;;17.11;nan;99137.31;4986730;28;20642;-66
2023/08/02 06:32:35;;;;;;;1.00;1.00;;;16.80;99.90;;;17.12;nan;99133.69;4993733;28;21222;-66
2023/08/02 06:35:02;;;;;;;1.07;0.97;;;16.80;99.90;;;17.14;nan;99135.16;4989750;28;20642;-68
2023/08/02 06:37:29;;;;;;;1.33;1.23;;;16.80;99.90;;;17.13;nan;99127.41;4990587;28;21581;-66
2023/08/02 06:39:56;;;;;;;0.87;0.87;;;16.80;99.90;;;17.06;nan;99125.53;4989009;28;20634;-67
2023/08/02 06:42:23;;;;;;;2.13;0.80;;;16.70;99.90;;;17.15;nan;99122.75;4991276;28;21199;-66
2023/08/02 06:44:50;;;;;;;1.07;1.07;;;16.80;99.90;;;17.20;nan;99112.47;4988373;28;20704;-66
2023/08/02 06:47:17;;;;;;;1.60;1.10;;;16.80;99.90;;;17.29;nan;99104.22;4985640;28;20675;-65
2023/08/02 06:49:44;;;;;;;2.40;1.40;;;16.90;99.90;;;17.29;nan;99098.16;4978726;28;21212;-66
2023/08/02 06:52:11;;;;;;;1.23;0.70;;;17.00;99.90;;;17.29;nan;99092.91;4993762;28;20645;-66
2023/08/02 06:54:38;;;;;;;1.73;1.10;;;17.00;99.90;;;17.24;nan;99090.00;4987541;28;21270;-67
2023/08/02 06:57:07;;;;;;;0.97;0.97;;;16.90;99.90;;;17.32;nan;99092.50;4997383;28;20658;-66
2023/08/02 06:59:34;;;;;;;1.93;1.00;;;17.00;99.90;;;17.34;nan;99077.31;4991026;28;20633;-66
2023/08/02 07:02:01;;;;;;;1.50;1.40;;;17.00;99.90;;;17.41;nan;99070.28;4987436;28;20642;-67
2023/08/02 07:04:28;;;;;;;0.80;0.80;;;17.10;99.90;;;17.40;nan;99056.28;4990161;28;20627;-65
2023/08/02 07:06:55;;;;;;;1.13;1.10;;;17.10;99.90;;;17.44;nan;99062.00;4987072;28;20677;-66
2023/08/02 07:09:22;;;;;;;2.23;1.10;;;17.10;99.90;;;17.50;nan;99064.72;4990570;28;20634;-66
2023/08/02 07:11:49;;;;;;;1.43;1.33;;;17.10;99.90;;;17.60;nan;99053.81;4993025;28;20634;-64
2023/08/02 07:14:16;;;;;;;1.43;1.40;;;17.20;99.90;;;17.68;nan;99051.84;4995651;28;20693;-68
2023/08/02 07:16:43;;;;;;;1.00;0.83;;;17.30;99.90;;;17.67;nan;99058.13;4987629;28;21024;-67
2023/08/02 07:19:10;;;;;;;0.70;0.60;;;17.30;99.90;;;17.70;nan;99054.28;4990274;28;20638;-66
2023/08/02 07:21:39;;;;;;;1.17;1.10;;;17.40;99.90;;;17.70;nan;99051.63;4987261;28;21191;-66
2023/08/02 07:24:06;;;;;;;0.63;0.63;;;17.30;99.90;;;17.68;nan;99053.66;4989427;28;20637;-67
2023/08/02 07:26:34;;;;;;;0.83;0.83;;;17.30;99.90;;;17.71;nan;99050.66;4986977;28;20658;-66
2023/08/02 07:29:01;;;;;;;0.90;0.77;;;17.30;99.90;;;17.70;nan;99051.63;4991180;28;20646;-66
2023/08/02 07:31:28;;;;;;;0.93;0.90;;;17.40;99.90;;;17.72;nan;99060.16;4990281;28;20993;-66
2023/08/02 07:33:55;;;;;;;0.50;0.50;;;17.40;99.90;;;17.69;nan;99047.38;4987733;28;20678;-66
2023/08/02 07:36:22;;;;;;;3.93;0.83;;;17.30;99.90;;;17.71;nan;99040.09;4987634;28;20641;-66
2023/08/02 07:38:49;;;;;;;1.03;1.03;;;17.40;99.90;;;17.74;nan;99032.59;4989474;28;21013;-67
2023/08/02 07:41:16;;;;;;;1.07;0.90;;;17.40;99.90;;;17.76;nan;99027.13;4989589;28;20637;-66
2023/08/02 07:43:43;;;;;;;0.63;0.63;;;17.40;99.90;;;17.77;nan;99007.66;4988412;28;20725;-67
2023/08/02 07:46:21;;;;;;;1.80;1.40;;;17.40;99.90;;;17.79;nan;99000.38;4986068;28;20630;-65
2023/08/02 07:48:51;;;;;;;2.70;1.10;;;17.40;99.90;;;17.83;nan;98985.78;4984844;28;20692;-66
2023/08/02 07:51:19;;;;;;;2.90;1.77;;;17.50;99.90;;;17.82;nan;99000.00;4984833;28;20650;-66
2023/08/02 07:53:48;;;;;;;1.80;1.30;;;17.40;99.90;;;17.86;nan;98993.31;4994157;28;20674;-67
2023/08/02 07:56:15;;;;;;;1.23;1.13;;;17.50;99.90;;;17.90;nan;99001.63;5001549;28;20634;-67
2023/08/02 07:58:41;;;;;;;1.63;1.27;;;17.50;99.90;;;17.88;nan;98988.66;4989321;28;20635;-67
2023/08/02 08:01:10;;;;;;;1.03;1.00;;;17.50;99.90;;;17.88;nan;98979.91;4989396;28;21222;-66
2023/08/02 08:03:37;;;;;;;1.30;1.20;;;17.50;99.90;;;17.84;nan;98972.38;4994194;28;20657;-67
2023/08/02 08:06:16;;;;;;;1.50;1.40;;;17.50;99.90;;;17.90;nan;98962.88;4990709;28;20648;-65
2023/08/02 08:08:43;;;;;;;1.40;1.30;;;17.50;99.90;;;17.94;nan;98960.66;4992711;28;20645;-66
2023/08/02 08:11:10;;;;;;;1.77;1.67;;;17.60;99.90;;;17.95;nan;98968.38;4992233;28;20637;-66
2023/08/02 08:13:37;;;;;;;1.77;1.20;;;17.60;99.90;;;17.96;nan;98969.19;5000590;28;20679;-67
2023/08/02 08:16:04;;;;;;;2.37;1.93;;;17.60;99.90;;;17.92;nan;98966.13;4989807;28;20635;-65
2023/08/02 08:18:32;;;;;;;1.40;1.30;;;17.60;99.90;;;17.95;nan;98972.84;4996741;28;20629;-68
2023/08/02 08:21:01;;;;;;;1.30;1.30;;;17.60;99.90;;;17.95;nan;98972.84;4982051;28;20646;-69
2023/08/02 08:23:29;;;;;;;2.57;2.07;;;17.60;99.90;;;17.95;nan;98973.66;4997488;28;20649;-66
2023/08/02 08:25:56;;;;;;;1.53;0.97;;;17.60;99.90;;;17.91;nan;98972.41;4993030;28;20648;-67
2023/08/02 08:28:23;;;;;;;2.70;1.40;;;17.50;99.90;;;17.91;nan;98969.75;4994930;28;20670;-67
2023/08/02 08:31:01;;;;;;;2.37;1.53;;;17.50;99.90;;;17.92;nan;98960.03;4994142;28;20646;-67
2023/08/02 08:33:30;;;;;;;1.33;1.23;;;17.50;99.90;;;17.97;nan;98947.88;4998855;28;20661;-67
2023/08/02 08:35:57;;;;;;;1.47;1.37;;;17.60;99.90;;;17.95;nan;98952.56;4992286;28;20649;-66
2023/08/02 08:38:24;;;;;;;0.83;0.83;;;17.60;99.90;;;17.94;nan;98944.81;4997821;28;20666;-66
2023/08/02 08:40:55;;;;;;;0.80;0.80;;;17.60;99.90;;;17.90;nan;98933.84;4991105;28;21222;-66
2023/08/02 08:43:27;;;;;;;0.73;0.73;;;17.60;99.90;;;17.91;nan;98946.03;4994659;28;20649;-69
2023/08/02 08:45:54;;;;;;;2.43;1.50;;;17.50;99.90;;;17.95;nan;98935.91;4985764;28;20677;-68
2023/08/02 08:48:23;;;;;;;0.73;0.73;;;17.60;99.90;;;17.97;nan;98934.69;5011542;28;20654;-66
2023/08/02 08:50:54;;;;;;;0.87;0.87;;;17.60;99.90;;;17.99;nan;98919.47;4988858;28;20630;-67
2023/08/02 08:53:44;;;;;;;1.00;1.00;;;17.60;99.90;;;18.05;nan;98902.84;4994213;28;20669;-66
2023/08/02 08:56:12;;;;;;;0.77;0.70;;;17.70;99.90;;;18.16;nan;98899.63;4992810;28;20622;-66
2023/08/02 08:58:43;;;;;;;1.00;0.90;;;17.80;99.90;;;18.22;nan;98898.00;4990247;28;20634;-66
2023/08/02 09:01:10;;;;;;;0.60;0.60;;;17.80;99.90;;;18.26;nan;98897.41;4990162;28;20996;-66
2023/08/02 09:03:37;;;;;;;1.37;0.73;;;17.90;99.90;;;18.33;nan;98890.31;4991912;28;20634;-67
2023/08/02 09:06:05;;;;;;;2.80;1.30;;;17.90;99.90;;;18.37;nan;98886.25;4989689;28;20646;-67
2023/08/02 09:08:47;;;;;;;1.60;1.23;;;18.00;99.90;;;18.42;nan;98885.66;4993178;28;20697;-66
2023/08/02 09:11:17;;;;;;;1.17;0.83;;;18.00;99.90;;;18.46;nan;98878.97;4984289;28;20649;-66
2023/08/02 09:13:44;;;;;;;1.10;0.83;;;18.10;99.90;;;18.50;nan;98883.66;4993364;28;20689;-66
2023/08/02 09:16:16;;;;;;;0.50;0.50;;;18.20;99.90;;;18.52;nan;98873.69;4989773;28;20638;-67
2023/08/02 09:18:46;;;;;;;0.80;0.80;;;18.20;99.90;;;18.55;nan;98880.38;4992313;28;20689;-67
2023/08/02 09:21:21;;;;;;;0.80;0.70;;;18.20;99.90;;;18.56;nan;98872.28;4990780;28;20672;-68
2023/08/02 09:23:55;;;;;;;0.70;0.60;;;18.20;99.90;;;18.55;nan;98870.63;4992602;28;20630;-67
2023/08/02 09:26:22;;;;;;;0.70;0.70;;;18.20;99.90;;;18.52;nan;98855.22;4991002;28;20638;-68
2023/08/02 09:29:07;;;;;;;0.90;0.90;;;18.20;99.90;;;18.49;nan;98855.63;4992006;28;21067;-66
2023/08/02 09:31:36;;;;;;;6.23;1.37;;;18.10;99.90;;;18.47;nan;98844.44;4994548;28;20642;-65
2023/08/02 09:34:03;;;;;;;1.03;1.03;;;18.10;99.90;;;18.52;nan;98838.56;4992376;28;21301;-68
2023/08/02 09:36:35;;;;;;;1.10;1.07;;;18.10;99.90;;;18.55;nan;98841.59;4990300;28;21093;-66
2023/08/02 09:39:23;;;;;;;1.73;1.30;;;18.20;99.90;;;18.55;nan;98838.13;4991195;28;20634;-66
2023/08/02 09:41:50;;;;;;;0.77;0.77;;;18.20;99.90;;;18.61;nan;98841.81;4992819;28;20630;-66
2023/08/02 09:44:25;;;;;;;1.23;1.03;;;18.20;99.90;;;18.63;nan;98839.75;4996569;28;21222;-67
2023/08/02 09:46:52;;;;;;;0.80;0.80;;;18.30;99.90;;;18.61;nan;98845.25;4986474;28;20665;-66
2023/08/02 09:49:21;;;;;;;0.40;0.40;;;18.30;99.90;;;18.57;nan;98834.28;4995936;28;20638;-67
2023/08/02 09:51:49;;;;;;;0.70;0.60;;;18.20;99.90;;;18.62;nan;98831.03;4988951;28;20660;-66
2023/08/02 09:54:16;;;;;;;1.30;1.20;;;18.20;99.90;;;18.65;nan;98827.16;4992801;28;20670;-66
2023/08/02 09:56:43;;;;;;;0.80;0.80;;;18.30;99.90;;;18.72;nan;98828.75;4989116;28;20797;-66
2023/08/02 09:59:11;;;;;;;1.37;1.27;;;18.30;99.90;;;18.79;nan;98823.47;4992519;28;20627;-66
2023/08/02 10:01:39;;;;;;;1.13;1.13;;;18.40;99.90;;;18.81;nan;98830.19;4992291;28;20686;-66
2023/08/02 10:04:12;;;;;;;0.87;0.87;;;18.40;99.90;;;18.75;nan;98816.97;5010333;28;20638;-66
2023/08/02 10:07:12;;;;;;;0.93;0.93;;;18.40;99.90;;;18.73;nan;98819.84;4988246;28;20670;-66
2023/08/02 10:09:39;;;;;;;0.77;0.70;;;18.40;99.90;;;18.78;nan;98814.75;4984935;28;21204;-66
2023/08/02 10:12:17;;;;;;;1.60;1.50;;;18.40;99.90;;;18.82;nan;98807.22;4990818;28;20638;-66
2023/08/02 10:14:46;;;;;;;0.90;0.90;;;18.40;99.90;;;18.85;nan;98796.22;4993730;28;20677;-65
2023/08/02 10:17:13;;;;;;;0.93;0.77;;;18.50;99.90;;;18.91;nan;98790.91;4991200;28;20654;-65
2023/08/02 10:19:41;;;;;;;1.53;0.93;;;18.50;99.90;;;18.93;nan;98802.09;4991965;28;20638;-66
2023/08/02 10:22:11;;;;;;;1.00;1.00;;;18.60;99.90;;;18.96;nan;98792.94;4990799;28;20633;-66
2023/08/02 10:24:40;;;;;;;1.13;1.13;;;18.60;99.90;;;19.00;nan;98797.63;4989375;28;20692;-66
2023/08/02 10:27:08;;;;;;;0.60;0.60;;;18.60;99.90;;;19.07;nan;98792.31;4992037;28;20658;-66
2023/08/02 10:29:37;;;;;;;0.60;0.60;;;18.70;99.90;;;19.11;nan;98781.13;4995940;28;20637;-66
2023/08/02 10:32:15;;;;;;;1.13;0.77;;;18.70;99.90;;;19.07;nan;98779.09;4988754;28;20669;-65
2023/08/02 10:34:46;;;;;;;1.10;1.00;;;18.70;99.90;;;19.09;nan;98779.69;4991135;28;21266;-66
2023/08/02 10:37:14;;;;;;;1.43;0.70;;;18.70;99.90;;;19.12;nan;98774.00;4991252;28;21249;-66